Terminal Aerodrome Forecast
Issued by NWS

Home | Current Version | Previous Version | Text Only | Print | Product List | Glossary On
Versions: 1 2 3 4 5 6 7 8 9 10 11 12 13 14 15 16 17 18 19 20 21 22 23 24
571
FTUS46 KMTR 232340
TAFSFO
TAF
KSFO 232340Z 2400/2506 30017G24KT P6SM FEW050 SCT250
     FM240400 28010KT P6SM SCT250
     FM240800 28005KT P6SM FEW008 SCT250
     FM241100 30005KT P6SM SKC
     FM241800 31008KT P6SM SKC
     FM242100 30014G19KT P6SM SKC
     FM250400 29010KT P6SM FEW010=

USA.gov is the U.S. government's official web portal to all federal, state and local government web resources and services.